sensor_id;sensor_type;location;lat;lon;timestamp;temperature;humidity
2024;DHT22;1016;48.770;9.154;2023-02-15T00:00:11;5.10;99.90
2024;DHT22;1016;48.770;9.154;2023-02-15T00:02:37;5.10;99.90
2024;DHT22;1016;48.770;9.154;2023-02-15T00:05:04;5.10;99.90
2024;DHT22;1016;48.770;9.154;2023-02-15T00:07:29;5.10;99.90
2024;DHT22;1016;48.770;9.154;2023-02-15T00:09:55;5.10;99.90
2024;DHT22;1016;48.770;9.154;2023-02-15T00:12:20;5.20;99.90
2024;DHT22;1016;48.770;9.154;2023-02-15T00:14:46;5.10;99.90
2024;DHT22;1016;48.770;9.154;2023-02-15T00:17:12;5.10;99.90
2024;DHT22;1016;48.770;9.154;2023-02-15T00:19:37;5.20;99.90
2024;DHT22;1016;48.770;9.154;2023-02-15T00:22:03;5.10;99.90
2024;DHT22;1016;48.770;9.154;2023-02-15T00:24:29;5.10;99.90
2024;DHT22;1016;48.770;9.154;2023-02-15T00:26:54;5.00;99.90
2024;DHT22;1016;48.770;9.154;2023-02-15T00:29:20;5.00;99.90
2024;DHT22;1016;48.770;9.154;2023-02-15T00:31:46;5.00;99.90
2024;DHT22;1016;48.770;9.154;2023-02-15T00:34:17;5.00;99.90
2024;DHT22;1016;48.770;9.154;2023-02-15T00:36:44;5.00;99.90
2024;DHT22;1016;48.770;9.154;2023-02-15T00:39:10;5.00;99.90
2024;DHT22;1016;48.770;9.154;2023-02-15T00:41:36;5.00;99.90
2024;DHT22;1016;48.770;9.154;2023-02-15T00:44:02;5.00;99.90
2024;DHT22;1016;48.770;9.154;2023-02-15T00:46:28;5.00;99.90
2024;DHT22;1016;48.770;9.154;2023-02-15T00:48:53;5.00;99.90
2024;DHT22;1016;48.770;9.154;2023-02-15T00:51:19;5.10;99.90
2024;DHT22;1016;48.770;9.154;2023-02-15T00:53:46;4.90;99.90
2024;DHT22;1016;48.770;9.154;2023-02-15T00:56:12;4.90;99.90
2024;DHT22;1016;48.770;9.154;2023-02-15T00:58:37;4.90;99.90
2024;DHT22;1016;48.770;9.154;2023-02-15T01:01:05;4.90;99.90
2024;DHT22;1016;48.770;9.154;2023-02-15T01:03:31;4.90;99.90
2024;DHT22;1016;48.770;9.154;2023-02-15T01:05:56;5.00;99.90
2024;DHT22;1016;48.770;9.154;2023-02-15T01:08:22;5.00;99.90
2024;DHT22;1016;48.770;9.154;2023-02-15T01:10:47;4.90;99.90
2024;DHT22;1016;48.770;9.154;2023-02-15T01:13:15;4.90;99.90
2024;DHT22;1016;48.770;9.154;2023-02-15T01:15:42;4.90;99.90
2024;DHT22;1016;48.770;9.154;2023-02-15T01:18:07;4.90;99.90
2024;DHT22;1016;48.770;9.154;2023-02-15T01:20:35;4.90;99.90
2024;DHT22;1016;48.770;9.154;2023-02-15T01:23:04;4.90;99.90
2024;DHT22;1016;48.770;9.154;2023-02-15T01:25:30;4.80;99.90
2024;DHT22;1016;48.770;9.154;2023-02-15T01:27:55;4.90;99.90
2024;DHT22;1016;48.770;9.154;2023-02-15T01:30:21;4.90;99.90
2024;DHT22;1016;48.770;9.154;2023-02-15T01:32:46;4.80;99.90
2024;DHT22;1016;48.770;9.154;2023-02-15T01:35:12;4.80;99.90
2024;DHT22;1016;48.770;9.154;2023-02-15T01:37:37;4.80;99.90
2024;DHT22;1016;48.770;9.154;2023-02-15T01:40:05;4.80;99.90
2024;DHT22;1016;48.770;9.154;2023-02-15T01:42:31;4.80;99.90
2024;DHT22;1016;48.770;9.154;2023-02-15T01:45:04;4.80;99.90
2024;DHT22;1016;48.770;9.154;2023-02-15T01:47:44;4.80;99.90
2024;DHT22;1016;48.770;9.154;2023-02-15T01:50:24;4.80;99.90
2024;DHT22;1016;48.770;9.154;2023-02-15T01:52:58;4.80;99.90
2024;DHT22;1016;48.770;9.154;2023-02-15T01:55:31;4.90;99.90
2024;DHT22;1016;48.770;9.154;2023-02-15T01:57:58;4.70;99.90
2024;DHT22;1016;48.770;9.154;2023-02-15T02:00:24;4.70;99.90
2024;DHT22;1016;48.770;9.154;2023-02-15T02:02:52;4.70;99.90
2024;DHT22;1016;48.770;9.154;2023-02-15T02:05:19;4.70;99.90
2024;DHT22;1016;48.770;9.154;2023-02-15T02:07:45;4.70;99.90
2024;DHT22;1016;48.770;9.154;2023-02-15T02:10:15;4.80;99.90
2024;DHT22;1016;48.770;9.154;2023-02-15T02:12:43;4.60;99.90
2024;DHT22;1016;48.770;9.154;2023-02-15T02:15:10;4.60;99.90
2024;DHT22;1016;48.770;9.154;2023-02-15T02:23:31;4.60;99.90
2024;DHT22;1016;48.770;9.154;2023-02-15T02:32:17;4.60;99.90
2024;DHT22;1016;48.770;9.154;2023-02-15T02:35:11;4.60;99.90
2024;DHT22;1016;48.770;9.154;2023-02-15T02:37:55;4.50;99.90
2024;DHT22;1016;48.770;9.154;2023-02-15T02:40:35;4.50;99.90
2024;DHT22;1016;48.770;9.154;2023-02-15T02:43:21;4.50;99.90
2024;DHT22;1016;48.770;9.154;2023-02-15T02:46:07;4.50;99.90
2024;DHT22;1016;48.770;9.154;2023-02-15T02:48:34;4.50;99.90
2024;DHT22;1016;48.770;9.154;2023-02-15T03:06:09;4.40;99.90
2024;DHT22;1016;48.770;9.154;2023-02-15T03:08:42;4.70;99.90
2024;DHT22;1016;48.770;9.154;2023-02-15T03:11:11;5.40;99.90
2024;DHT22;1016;48.770;9.154;2023-02-15T03:13:37;4.40;99.90
2024;DHT22;1016;48.770;9.154;2023-02-15T03:16:04;4.50;99.90
2024;DHT22;1016;48.770;9.154;2023-02-15T03:18:51;4.30;99.90
2024;DHT22;1016;48.770;9.154;2023-02-15T03:21:26;4.40;99.90
2024;DHT22;1016;48.770;9.154;2023-02-15T03:23:56;4.40;99.90
2024;DHT22;1016;48.770;9.154;2023-02-15T03:26:24;4.40;99.90
2024;DHT22;1016;48.770;9.154;2023-02-15T03:28:52;4.40;99.90
2024;DHT22;1016;48.770;9.154;2023-02-15T03:31:18;4.40;99.90
2024;DHT22;1016;48.770;9.154;2023-02-15T03:33:54;4.50;99.90
2024;DHT22;1016;48.770;9.154;2023-02-15T03:39:37;4.30;99.90
2024;DHT22;1016;48.770;9.154;2023-02-15T03:42:13;4.30;99.90
2024;DHT22;1016;48.770;9.154;2023-02-15T03:44:57;4.30;99.90
2024;DHT22;1016;48.770;9.154;2023-02-15T03:47:27;4.30;99.90
2024;DHT22;1016;48.770;9.154;2023-02-15T03:50:02;4.30;99.90
2024;DHT22;1016;48.770;9.154;2023-02-15T03:52:30;4.30;99.90
2024;DHT22;1016;48.770;9.154;2023-02-15T03:54:57;4.30;99.90
2024;DHT22;1016;48.770;9.154;2023-02-15T03:57:26;4.30;99.90
2024;DHT22;1016;48.770;9.154;2023-02-15T04:00:23;4.30;99.90
2024;DHT22;1016;48.770;9.154;2023-02-15T04:03:21;4.30;99.90
2024;DHT22;1016;48.770;9.154;2023-02-15T04:05:47;4.30;99.90
2024;DHT22;1016;48.770;9.154;2023-02-15T04:08:13;4.30;99.90
2024;DHT22;1016;48.770;9.154;2023-02-15T04:10:39;4.20;99.90
2024;DHT22;1016;48.770;9.154;2023-02-15T04:13:30;4.30;99.90
2024;DHT22;1016;48.770;9.154;2023-02-15T04:15:56;4.30;99.90
2024;DHT22;1016;48.770;9.154;2023-02-15T04:18:34;4.20;99.90
2024;DHT22;1016;48.770;9.154;2023-02-15T04:21:19;4.20;99.90
2024;DHT22;1016;48.770;9.154;2023-02-15T04:24:03;4.20;99.90
2024;DHT22;1016;48.770;9.154;2023-02-15T04:26:47;4.20;99.90
2024;DHT22;1016;48.770;9.154;2023-02-15T04:29:14;4.20;99.90
2024;DHT22;1016;48.770;9.154;2023-02-15T04:31:40;4.20;99.90
2024;DHT22;1016;48.770;9.154;2023-02-15T04:34:06;4.10;99.90
2024;DHT22;1016;48.770;9.154;2023-02-15T04:36:32;4.20;99.90
2024;DHT22;1016;48.770;9.154;2023-02-15T04:41:23;4.20;99.90
2024;DHT22;1016;48.770;9.154;2023-02-15T04:43:49;4.10;99.90
2024;DHT22;1016;48.770;9.154;2023-02-15T04:46:14;4.10;99.90
2024;DHT22;1016;48.770;9.154;2023-02-15T04:48:40;4.10;99.90
2024;DHT22;1016;48.770;9.154;2023-02-15T04:51:07;4.10;99.90
2024;DHT22;1016;48.770;9.154;2023-02-15T04:53:33;4.10;99.90
2024;DHT22;1016;48.770;9.154;2023-02-15T04:55:58;4.10;99.90
2024;DHT22;1016;48.770;9.154;2023-02-15T04:58:24;4.10;99.90
2024;DHT22;1016;48.770;9.154;2023-02-15T05:00:50;4.10;99.90
2024;DHT22;1016;48.770;9.154;2023-02-15T05:03:15;4.10;99.90
2024;DHT22;1016;48.770;9.154;2023-02-15T05:05:41;4.10;99.90
2024;DHT22;1016;48.770;9.154;2023-02-15T05:08:06;4.10;99.90
2024;DHT22;1016;48.770;9.154;2023-02-15T05:10:32;4.00;99.90
2024;DHT22;1016;48.770;9.154;2023-02-15T05:12:57;4.00;99.90
2024;DHT22;1016;48.770;9.154;2023-02-15T05:15:23;4.10;99.90
2024;DHT22;1016;48.770;9.154;2023-02-15T05:17:49;4.10;99.90
2024;DHT22;1016;48.770;9.154;2023-02-15T05:20:15;4.10;99.90
2024;DHT22;1016;48.770;9.154;2023-02-15T05:22:40;4.00;99.90
2024;DHT22;1016;48.770;9.154;2023-02-15T05:25:07;4.00;99.90
2024;DHT22;1016;48.770;9.154;2023-02-15T05:27:51;4.00;99.90
2024;DHT22;1016;48.770;9.154;2023-02-15T05:30:35;4.00;99.90
2024;DHT22;1016;48.770;9.154;2023-02-15T05:33:01;4.00;99.90
2024;DHT22;1016;48.770;9.154;2023-02-15T05:35:26;4.00;99.90
2024;DHT22;1016;48.770;9.154;2023-02-15T05:37:52;4.00;99.90
2024;DHT22;1016;48.770;9.154;2023-02-15T05:40:18;4.00;99.90
2024;DHT22;1016;48.770;9.154;2023-02-15T05:42:44;4.00;99.90
2024;DHT22;1016;48.770;9.154;2023-02-15T05:45:09;4.00;99.90
2024;DHT22;1016;48.770;9.154;2023-02-15T05:47:35;4.00;99.90
2024;DHT22;1016;48.770;9.154;2023-02-15T05:50:00;4.00;99.90
2024;DHT22;1016;48.770;9.154;2023-02-15T05:52:26;4.00;99.90
2024;DHT22;1016;48.770;9.154;2023-02-15T05:54:51;4.00;99.90
2024;DHT22;1016;48.770;9.154;2023-02-15T05:57:17;4.00;99.90
2024;DHT22;1016;48.770;9.154;2023-02-15T05:59:42;4.00;99.90
2024;DHT22;1016;48.770;9.154;2023-02-15T06:02:08;4.00;99.90
2024;DHT22;1016;48.770;9.154;2023-02-15T06:04:33;3.90;99.90
2024;DHT22;1016;48.770;9.154;2023-02-15T06:06:59;4.00;99.90
2024;DHT22;1016;48.770;9.154;2023-02-15T06:09:24;4.00;99.90
2024;DHT22;1016;48.770;9.154;2023-02-15T06:11:50;3.90;99.90
2024;DHT22;1016;48.770;9.154;2023-02-15T06:14:15;4.00;99.90
2024;DHT22;1016;48.770;9.154;2023-02-15T06:16:41;4.00;99.90
2024;DHT22;1016;48.770;9.154;2023-02-15T06:19:06;4.00;99.90
2024;DHT22;1016;48.770;9.154;2023-02-15T06:21:32;4.00;99.90
2024;DHT22;1016;48.770;9.154;2023-02-15T06:23:57;4.00;99.90
2024;DHT22;1016;48.770;9.154;2023-02-15T06:26:23;4.00;99.90
2024;DHT22;1016;48.770;9.154;2023-02-15T06:28:49;3.90;99.90
2024;DHT22;1016;48.770;9.154;2023-02-15T06:31:14;4.00;99.90
2024;DHT22;1016;48.770;9.154;2023-02-15T06:33:40;4.00;99.90
2024;DHT22;1016;48.770;9.154;2023-02-15T06:36:06;3.90;99.90
2024;DHT22;1016;48.770;9.154;2023-02-15T06:38:31;4.00;99.90
2024;DHT22;1016;48.770;9.154;2023-02-15T06:40:57;3.90;99.90
2024;DHT22;1016;48.770;9.154;2023-02-15T06:43:22;3.90;99.90
2024;DHT22;1016;48.770;9.154;2023-02-15T06:45:48;3.90;99.90
2024;DHT22;1016;48.770;9.154;2023-02-15T06:48:16;3.90;99.90
2024;DHT22;1016;48.770;9.154;2023-02-15T06:50:42;4.00;99.90
2024;DHT22;1016;48.770;9.154;2023-02-15T06:53:07;3.90;99.90
2024;DHT22;1016;48.770;9.154;2023-02-15T06:55:33;3.90;99.90
2024;DHT22;1016;48.770;9.154;2023-02-15T06:57:58;4.00;99.90
2024;DHT22;1016;48.770;9.154;2023-02-15T07:00:24;3.80;99.90
2024;DHT22;1016;48.770;9.154;2023-02-15T07:02:54;3.80;99.90
2024;DHT22;1016;48.770;9.154;2023-02-15T07:05:23;3.80;99.90
2024;DHT22;1016;48.770;9.154;2023-02-15T07:07:49;3.90;99.90
2024;DHT22;1016;48.770;9.154;2023-02-15T07:10:15;3.90;99.90
2024;DHT22;1016;48.770;9.154;2023-02-15T07:12:41;3.90;99.90
2024;DHT22;1016;48.770;9.154;2023-02-15T07:15:14;3.90;99.90
2024;DHT22;1016;48.770;9.154;2023-02-15T07:17:41;4.00;99.90
2024;DHT22;1016;48.770;9.154;2023-02-15T07:20:12;4.00;99.90
2024;DHT22;1016;48.770;9.154;2023-02-15T07:22:38;4.10;99.90
2024;DHT22;1016;48.770;9.154;2023-02-15T07:25:07;4.10;99.90
2024;DHT22;1016;48.770;9.154;2023-02-15T07:27:32;4.00;99.90
2024;DHT22;1016;48.770;9.154;2023-02-15T07:29:59;4.00;99.90
2024;DHT22;1016;48.770;9.154;2023-02-15T07:32:28;3.70;99.90
2024;DHT22;1016;48.770;9.154;2023-02-15T07:34:54;3.90;99.90
2024;DHT22;1016;48.770;9.154;2023-02-15T07:37:19;3.80;99.90
2024;DHT22;1016;48.770;9.154;2023-02-15T07:39:45;3.80;99.90
2024;DHT22;1016;48.770;9.154;2023-02-15T07:42:10;3.70;99.90
2024;DHT22;1016;48.770;9.154;2023-02-15T07:44:36;3.70;99.90
2024;DHT22;1016;48.770;9.154;2023-02-15T07:47:01;3.80;99.90
2024;DHT22;1016;48.770;9.154;2023-02-15T07:49:27;3.70;99.90
2024;DHT22;1016;48.770;9.154;2023-02-15T07:51:53;3.70;99.90
2024;DHT22;1016;48.770;9.154;2023-02-15T07:54:18;3.60;99.90
2024;DHT22;1016;48.770;9.154;2023-02-15T07:56:44;3.60;99.90
2024;DHT22;1016;48.770;9.154;2023-02-15T07:59:10;3.60;99.90
2024;DHT22;1016;48.770;9.154;2023-02-15T08:01:36;3.70;99.90
2024;DHT22;1016;48.770;9.154;2023-02-15T08:04:04;3.80;99.90
2024;DHT22;1016;48.770;9.154;2023-02-15T08:06:33;3.80;99.90
2024;DHT22;1016;48.770;9.154;2023-02-15T08:08:59;3.90;99.90
2024;DHT22;1016;48.770;9.154;2023-02-15T08:11:28;3.90;99.90
2024;DHT22;1016;48.770;9.154;2023-02-15T08:19:15;4.10;99.90
2024;DHT22;1016;48.770;9.154;2023-02-15T08:21:42;4.20;99.90
2024;DHT22;1016;48.770;9.154;2023-02-15T08:24:10;4.20;99.90
2024;DHT22;1016;48.770;9.154;2023-02-15T08:26:36;4.20;99.90
2024;DHT22;1016;48.770;9.154;2023-02-15T08:29:04;4.00;99.90
2024;DHT22;1016;48.770;9.154;2023-02-15T08:31:30;4.00;99.90
2024;DHT22;1016;48.770;9.154;2023-02-15T08:33:56;4.00;99.90
2024;DHT22;1016;48.770;9.154;2023-02-15T08:36:24;4.00;99.90
2024;DHT22;1016;48.770;9.154;2023-02-15T08:38:51;4.10;99.90
2024;DHT22;1016;48.770;9.154;2023-02-15T08:41:21;4.10;99.90
2024;DHT22;1016;48.770;9.154;2023-02-15T08:43:50;4.20;99.90
2024;DHT22;1016;48.770;9.154;2023-02-15T08:46:17;4.30;99.90
2024;DHT22;1016;48.770;9.154;2023-02-15T08:48:44;4.40;99.90
2024;DHT22;1016;48.770;9.154;2023-02-15T08:53:38;4.50;99.90
2024;DHT22;1016;48.770;9.154;2023-02-15T08:56:04;4.50;99.90
2024;DHT22;1016;48.770;9.154;2023-02-15T08:58:30;4.60;99.90
2024;DHT22;1016;48.770;9.154;2023-02-15T09:00:56;4.60;99.90
2024;DHT22;1016;48.770;9.154;2023-02-15T09:03:22;4.60;99.90
2024;DHT22;1016;48.770;9.154;2023-02-15T09:05:48;4.50;99.90
2024;DHT22;1016;48.770;9.154;2023-02-15T09:08:14;4.50;99.90
2024;DHT22;1016;48.770;9.154;2023-02-15T09:10:39;4.60;99.90
2024;DHT22;1016;48.770;9.154;2023-02-15T09:13:05;4.50;99.90
2024;DHT22;1016;48.770;9.154;2023-02-15T09:15:31;4.50;99.90
2024;DHT22;1016;48.770;9.154;2023-02-15T09:17:56;4.60;99.90
2024;DHT22;1016;48.770;9.154;2023-02-15T09:20:24;4.60;99.90
2024;DHT22;1016;48.770;9.154;2023-02-15T09:22:52;4.40;99.90
2024;DHT22;1016;48.770;9.154;2023-02-15T09:25:18;4.60;99.90
2024;DHT22;1016;48.770;9.154;2023-02-15T09:27:43;4.50;99.90
2024;DHT22;1016;48.770;9.154;2023-02-15T09:30:09;4.80;99.90
2024;DHT22;1016;48.770;9.154;2023-02-15T09:32:35;4.70;99.90
2024;DHT22;1016;48.770;9.154;2023-02-15T09:35:00;4.40;99.90
2024;DHT22;1016;48.770;9.154;2023-02-15T09:37:26;4.80;99.90
2024;DHT22;1016;48.770;9.154;2023-02-15T09:39:51;4.80;99.90
2024;DHT22;1016;48.770;9.154;2023-02-15T09:42:39;4.80;99.90
2024;DHT22;1016;48.770;9.154;2023-02-15T09:48:01;4.70;99.90
2024;DHT22;1016;48.770;9.154;2023-02-15T09:51:01;4.60;99.90
2024;DHT22;1016;48.770;9.154;2023-02-15T09:56:32;4.60;99.90
2024;DHT22;1016;48.770;9.154;2023-02-15T09:59:11;4.70;99.90
2024;DHT22;1016;48.770;9.154;2023-02-15T10:02:10;4.80;99.90
2024;DHT22;1016;48.770;9.154;2023-02-15T10:05:00;4.90;99.90
2024;DHT22;1016;48.770;9.154;2023-02-15T10:16:18;5.20;99.90
2024;DHT22;1016;48.770;9.154;2023-02-15T10:18:53;5.40;99.90
2024;DHT22;1016;48.770;9.154;2023-02-15T10:21:46;5.30;99.90
2024;DHT22;1016;48.770;9.154;2023-02-15T10:27:11;5.40;99.90
2024;DHT22;1016;48.770;9.154;2023-02-15T10:29:41;5.40;99.90
2024;DHT22;1016;48.770;9.154;2023-02-15T10:35:01;5.50;99.90
2024;DHT22;1016;48.770;9.154;2023-02-15T10:40:48;5.60;99.90
2024;DHT22;1016;48.770;9.154;2023-02-15T10:43:40;5.80;99.90
2024;DHT22;1016;48.770;9.154;2023-02-15T10:49:20;6.00;99.90
2024;DHT22;1016;48.770;9.154;2023-02-15T10:58:05;6.20;99.90
2024;DHT22;1016;48.770;9.154;2023-02-15T11:00:38;6.30;99.90
2024;DHT22;1016;48.770;9.154;2023-02-15T11:06:05;6.40;99.90
2024;DHT22;1016;48.770;9.154;2023-02-15T11:08:35;6.50;99.90
2024;DHT22;1016;48.770;9.154;2023-02-15T11:11:21;6.60;99.90
2024;DHT22;1016;48.770;9.154;2023-02-15T11:13:51;6.60;99.90
2024;DHT22;1016;48.770;9.154;2023-02-15T11:16:32;6.70;99.90
2024;DHT22;1016;48.770;9.154;2023-02-15T11:19:04;6.80;99.90
2024;DHT22;1016;48.770;9.154;2023-02-15T11:21:34;6.90;99.90
2024;DHT22;1016;48.770;9.154;2023-02-15T11:24:11;7.00;99.90
2024;DHT22;1016;48.770;9.154;2023-02-15T11:26:54;7.00;99.90
2024;DHT22;1016;48.770;9.154;2023-02-15T11:29:30;7.10;99.90
2024;DHT22;1016;48.770;9.154;2023-02-15T11:31:59;7.20;99.90
2024;DHT22;1016;48.770;9.154;2023-02-15T11:34:27;7.30;99.90
2024;DHT22;1016;48.770;9.154;2023-02-15T11:36:58;7.30;99.90
2024;DHT22;1016;48.770;9.154;2023-02-15T11:39:26;7.30;99.90
2024;DHT22;1016;48.770;9.154;2023-02-15T11:41:57;7.40;99.90
2024;DHT22;1016;48.770;9.154;2023-02-15T11:45:57;7.40;99.90
2024;DHT22;1016;48.770;9.154;2023-02-15T11:47:51;7.50;99.90
2024;DHT22;1016;48.770;9.154;2023-02-15T11:50:22;7.50;99.90
2024;DHT22;1016;48.770;9.154;2023-02-15T11:52:51;7.60;99.90
2024;DHT22;1016;48.770;9.154;2023-02-15T11:55:21;7.60;99.90
2024;DHT22;1016;48.770;9.154;2023-02-15T11:58:01;7.70;99.90
2024;DHT22;1016;48.770;9.154;2023-02-15T12:00:46;7.90;99.90
2024;DHT22;1016;48.770;9.154;2023-02-15T12:03:17;7.90;99.90
2024;DHT22;1016;48.770;9.154;2023-02-15T12:05:45;7.90;99.90
2024;DHT22;1016;48.770;9.154;2023-02-15T12:08:19;7.90;99.90
2024;DHT22;1016;48.770;9.154;2023-02-15T12:11:06;7.90;99.90
2024;DHT22;1016;48.770;9.154;2023-02-15T12:14:03;8.00;99.90
2024;DHT22;1016;48.770;9.154;2023-02-15T12:16:31;8.00;99.90
2024;DHT22;1016;48.770;9.154;2023-02-15T12:18:59;8.10;99.90
2024;DHT22;1016;48.770;9.154;2023-02-15T12:21:31;8.00;99.90
2024;DHT22;1016;48.770;9.154;2023-02-15T12:24:03;8.10;99.90
2024;DHT22;1016;48.770;9.154;2023-02-15T12:26:35;8.10;99.90
2024;DHT22;1016;48.770;9.154;2023-02-15T12:29:12;8.20;99.90
2024;DHT22;1016;48.770;9.154;2023-02-15T12:31:41;8.30;99.90
2024;DHT22;1016;48.770;9.154;2023-02-15T12:34:14;8.30;99.90
2024;DHT22;1016;48.770;9.154;2023-02-15T12:36:49;8.40;99.90
2024;DHT22;1016;48.770;9.154;2023-02-15T12:39:22;8.50;99.90
2024;DHT22;1016;48.770;9.154;2023-02-15T12:44:23;8.60;99.90
2024;DHT22;1016;48.770;9.154;2023-02-15T12:47:19;8.60;99.90
2024;DHT22;1016;48.770;9.154;2023-02-15T12:50:21;8.80;99.90
2024;DHT22;1016;48.770;9.154;2023-02-15T12:52:49;8.80;99.90
2024;DHT22;1016;48.770;9.154;2023-02-15T12:55:27;8.80;99.90
2024;DHT22;1016;48.770;9.154;2023-02-15T12:58:15;8.90;99.90
2024;DHT22;1016;48.770;9.154;2023-02-15T13:03:21;10.90;99.90
2024;DHT22;1016;48.770;9.154;2023-02-15T13:05:53;12.60;99.90
2024;DHT22;1016;48.770;9.154;2023-02-15T13:08:25;13.60;99.90
2024;DHT22;1016;48.770;9.154;2023-02-15T13:10:56;14.10;99.90
2024;DHT22;1016;48.770;9.154;2023-02-15T13:13:26;15.40;99.90
2024;DHT22;1016;48.770;9.154;2023-02-15T13:15:56;15.70;99.90
2024;DHT22;1016;48.770;9.154;2023-02-15T13:18:34;16.10;99.90
2024;DHT22;1016;48.770;9.154;2023-02-15T13:21:10;16.20;99.90
2024;DHT22;1016;48.770;9.154;2023-02-15T13:23:37;16.40;99.60
2024;DHT22;1016;48.770;9.154;2023-02-15T13:26:05;16.40;97.50
2024;DHT22;1016;48.770;9.154;2023-02-15T13:28:48;16.00;96.80
2024;DHT22;1016;48.770;9.154;2023-02-15T13:31:19;15.90;96.40
2024;DHT22;1016;48.770;9.154;2023-02-15T13:33:49;16.00;96.20
2024;DHT22;1016;48.770;9.154;2023-02-15T13:38:55;16.10;95.90
2024;DHT22;1016;48.770;9.154;2023-02-15T13:41:51;16.10;94.90
2024;DHT22;1016;48.770;9.154;2023-02-15T13:44:40;15.80;95.70
2024;DHT22;1016;48.770;9.154;2023-02-15T13:51:21;15.00;97.90
2024;DHT22;1016;48.770;9.154;2023-02-15T13:53:56;14.70;96.60
2024;DHT22;1016;48.770;9.154;2023-02-15T13:56:02;14.60;96.50
2024;DHT22;1016;48.770;9.154;2023-02-15T13:59:01;14.50;96.60
2024;DHT22;1016;48.770;9.154;2023-02-15T14:04:52;14.10;96.30
2024;DHT22;1016;48.770;9.154;2023-02-15T14:10:31;13.50;96.00
2024;DHT22;1016;48.770;9.154;2023-02-15T14:19:21;12.40;96.50
2024;DHT22;1016;48.770;9.154;2023-02-15T14:22:08;12.10;96.70
2024;DHT22;1016;48.770;9.154;2023-02-15T14:24:45;11.80;97.50
2024;DHT22;1016;48.770;9.154;2023-02-15T14:30:01;11.50;98.80
2024;DHT22;1016;48.770;9.154;2023-02-15T14:35:19;11.10;98.60
2024;DHT22;1016;48.770;9.154;2023-02-15T14:56:43;9.90;99.90
2024;DHT22;1016;48.770;9.154;2023-02-15T14:59:22;9.70;99.90
2024;DHT22;1016;48.770;9.154;2023-02-15T15:01:57;9.60;99.90
2024;DHT22;1016;48.770;9.154;2023-02-15T15:04:25;9.50;99.90
2024;DHT22;1016;48.770;9.154;2023-02-15T15:07:08;9.50;99.90
2024;DHT22;1016;48.770;9.154;2023-02-15T15:09:37;9.40;99.90
2024;DHT22;1016;48.770;9.154;2023-02-15T15:14:47;9.20;99.90
2024;DHT22;1016;48.770;9.154;2023-02-15T15:20:05;9.10;99.90
2024;DHT22;1016;48.770;9.154;2023-02-15T15:22:35;9.00;99.90
2024;DHT22;1016;48.770;9.154;2023-02-15T15:25:04;8.90;99.90
2024;DHT22;1016;48.770;9.154;2023-02-15T15:27:47;8.90;99.90
2024;DHT22;1016;48.770;9.154;2023-02-15T15:49:46;8.40;99.90
2024;DHT22;1016;48.770;9.154;2023-02-15T15:52:18;8.40;99.90
2024;DHT22;1016;48.770;9.154;2023-02-15T15:54:47;8.40;99.90
2024;DHT22;1016;48.770;9.154;2023-02-15T15:57:30;8.30;99.90
2024;DHT22;1016;48.770;9.154;2023-02-15T15:59:57;8.30;99.90
2024;DHT22;1016;48.770;9.154;2023-02-15T16:02:26;8.20;99.90
2024;DHT22;1016;48.770;9.154;2023-02-15T16:04:52;8.20;99.90
2024;DHT22;1016;48.770;9.154;2023-02-15T16:10:07;8.10;99.90
2024;DHT22;1016;48.770;9.154;2023-02-15T16:12:47;8.20;99.90
2024;DHT22;1016;48.770;9.154;2023-02-15T16:15:16;8.10;99.90
2024;DHT22;1016;48.770;9.154;2023-02-15T16:17:45;8.10;99.90
2024;DHT22;1016;48.770;9.154;2023-02-15T16:20:20;8.00;99.90
2024;DHT22;1016;48.770;9.154;2023-02-15T16:22:48;8.00;99.90
2024;DHT22;1016;48.770;9.154;2023-02-15T16:25:24;8.00;99.90
2024;DHT22;1016;48.770;9.154;2023-02-15T16:27:53;7.80;99.90
2024;DHT22;1016;48.770;9.154;2023-02-15T16:32:47;7.80;99.90
2024;DHT22;1016;48.770;9.154;2023-02-15T16:35:15;7.80;99.90
2024;DHT22;1016;48.770;9.154;2023-02-15T16:37:42;7.80;99.90
2024;DHT22;1016;48.770;9.154;2023-02-15T16:40:46;7.80;99.90
2024;DHT22;1016;48.770;9.154;2023-02-15T16:43:16;7.80;99.90
2024;DHT22;1016;48.770;9.154;2023-02-15T16:45:43;7.70;99.90
2024;DHT22;1016;48.770;9.154;2023-02-15T16:48:16;7.70;99.90
2024;DHT22;1016;48.770;9.154;2023-02-15T16:50:51;7.70;99.90
2024;DHT22;1016;48.770;9.154;2023-02-15T16:53:26;7.70;99.90
2024;DHT22;1016;48.770;9.154;2023-02-15T16:55:58;7.70;99.90
2024;DHT22;1016;48.770;9.154;2023-02-15T16:58:40;7.60;99.90
2024;DHT22;1016;48.770;9.154;2023-02-15T17:01:08;7.60;99.90
2024;DHT22;1016;48.770;9.154;2023-02-15T17:03:36;7.60;99.90
2024;DHT22;1016;48.770;9.154;2023-02-15T17:06:03;7.50;99.90
2024;DHT22;1016;48.770;9.154;2023-02-15T17:08:41;7.50;99.90
2024;DHT22;1016;48.770;9.154;2023-02-15T17:11:17;7.50;99.90
2024;DHT22;1016;48.770;9.154;2023-02-15T17:17:14;7.50;99.90
2024;DHT22;1016;48.770;9.154;2023-02-15T17:19:48;7.50;99.90
2024;DHT22;1016;48.770;9.154;2023-02-15T17:22:21;7.50;99.90
2024;DHT22;1016;48.770;9.154;2023-02-15T17:24:49;7.50;99.90
2024;DHT22;1016;48.770;9.154;2023-02-15T17:27:20;7.40;99.90
2024;DHT22;1016;48.770;9.154;2023-02-15T17:29:56;7.40;99.90
2024;DHT22;1016;48.770;9.154;2023-02-15T17:32:24;7.40;99.90
2024;DHT22;1016;48.770;9.154;2023-02-15T17:37:30;7.40;99.90
2024;DHT22;1016;48.770;9.154;2023-02-15T17:39:57;7.30;99.90
2024;DHT22;1016;48.770;9.154;2023-02-15T17:42:23;7.30;99.90
2024;DHT22;1016;48.770;9.154;2023-02-15T17:44:49;7.30;99.90
2024;DHT22;1016;48.770;9.154;2023-02-15T17:47:24;7.30;99.90
2024;DHT22;1016;48.770;9.154;2023-02-15T17:49:52;7.20;99.90
2024;DHT22;1016;48.770;9.154;2023-02-15T17:52:18;7.20;99.90
2024;DHT22;1016;48.770;9.154;2023-02-15T17:54:44;7.20;99.90
2024;DHT22;1016;48.770;9.154;2023-02-15T17:57:30;7.20;99.90
2024;DHT22;1016;48.770;9.154;2023-02-15T17:59:56;7.10;99.90
2024;DHT22;1016;48.770;9.154;2023-02-15T18:02:40;7.10;99.90
2024;DHT22;1016;48.770;9.154;2023-02-15T18:05:25;7.10;99.90
2024;DHT22;1016;48.770;9.154;2023-02-15T18:08:14;7.10;99.90
2024;DHT22;1016;48.770;9.154;2023-02-15T18:11:00;7.10;99.90
2024;DHT22;1016;48.770;9.154;2023-02-15T18:13:44;7.00;99.90
2024;DHT22;1016;48.770;9.154;2023-02-15T18:16:14;7.00;99.90
2024;DHT22;1016;48.770;9.154;2023-02-15T18:18:41;7.00;99.90
2024;DHT22;1016;48.770;9.154;2023-02-15T18:21:07;7.00;99.90
2024;DHT22;1016;48.770;9.154;2023-02-15T18:23:34;6.90;99.90
2024;DHT22;1016;48.770;9.154;2023-02-15T18:25:59;6.90;99.90
2024;DHT22;1016;48.770;9.154;2023-02-15T18:28:25;7.00;99.90
2024;DHT22;1016;48.770;9.154;2023-02-15T18:30:50;7.00;99.90
2024;DHT22;1016;48.770;9.154;2023-02-15T18:34:05;7.00;99.90
2024;DHT22;1016;48.770;9.154;2023-02-15T18:36:28;6.90;99.90
2024;DHT22;1016;48.770;9.154;2023-02-15T18:38:55;6.90;99.90
2024;DHT22;1016;48.770;9.154;2023-02-15T18:41:21;6.90;99.90
2024;DHT22;1016;48.770;9.154;2023-02-15T18:43:48;6.90;99.90
2024;DHT22;1016;48.770;9.154;2023-02-15T18:46:14;6.90;99.90
2024;DHT22;1016;48.770;9.154;2023-02-15T18:48:40;6.80;99.90
2024;DHT22;1016;48.770;9.154;2023-02-15T18:51:23;6.80;99.90
2024;DHT22;1016;48.770;9.154;2023-02-15T18:53:51;6.80;99.90
2024;DHT22;1016;48.770;9.154;2023-02-15T18:56:19;6.70;99.90
2024;DHT22;1016;48.770;9.154;2023-02-15T18:58:45;6.70;99.90
2024;DHT22;1016;48.770;9.154;2023-02-15T19:01:16;6.70;99.90
2024;DHT22;1016;48.770;9.154;2023-02-15T19:03:46;6.70;99.90
2024;DHT22;1016;48.770;9.154;2023-02-15T19:06:14;6.70;99.90
2024;DHT22;1016;48.770;9.154;2023-02-15T19:08:40;6.70;99.90
2024;DHT22;1016;48.770;9.154;2023-02-15T19:11:14;6.70;99.90
2024;DHT22;1016;48.770;9.154;2023-02-15T19:13:41;6.70;99.90
2024;DHT22;1016;48.770;9.154;2023-02-15T19:16:28;6.60;99.90
2024;DHT22;1016;48.770;9.154;2023-02-15T19:18:53;6.60;99.90
2024;DHT22;1016;48.770;9.154;2023-02-15T19:21:19;6.60;99.90